sensor_id;sensor_type;location;lat;lon;timestamp;temperature;humidity
14733;DHT22;7457;50.960;6.830;2022-07-25T00:01:59;22.40;85.70
14733;DHT22;7457;50.960;6.830;2022-07-25T00:04:24;22.40;86.00
14733;DHT22;7457;50.960;6.830;2022-07-25T00:06:50;22.30;86.00
14733;DHT22;7457;50.960;6.830;2022-07-25T00:09:16;22.40;86.10
14733;DHT22;7457;50.960;6.830;2022-07-25T00:11:41;22.40;86.10
14733;DHT22;7457;50.960;6.830;2022-07-25T00:14:07;22.40;86.00
14733;DHT22;7457;50.960;6.830;2022-07-25T00:16:34;22.40;85.90
14733;DHT22;7457;50.960;6.830;2022-07-25T00:19:00;22.40;85.80
14733;DHT22;7457;50.960;6.830;2022-07-25T00:21:25;22.40;85.80
14733;DHT22;7457;50.960;6.830;2022-07-25T00:23:51;22.40;85.80
14733;DHT22;7457;50.960;6.830;2022-07-25T00:26:17;22.40;85.90
14733;DHT22;7457;50.960;6.830;2022-07-25T00:28:43;22.30;85.90
14733;DHT22;7457;50.960;6.830;2022-07-25T00:31:08;22.30;85.80
14733;DHT22;7457;50.960;6.830;2022-07-25T00:33:34;22.20;85.80
14733;DHT22;7457;50.960;6.830;2022-07-25T00:36:00;22.20;85.90
14733;DHT22;7457;50.960;6.830;2022-07-25T00:38:25;22.10;86.00
14733;DHT22;7457;50.960;6.830;2022-07-25T00:40:51;22.10;86.10
14733;DHT22;7457;50.960;6.830;2022-07-25T00:43:17;22.00;85.90
14733;DHT22;7457;50.960;6.830;2022-07-25T00:45:42;22.00;86.30
14733;DHT22;7457;50.960;6.830;2022-07-25T00:48:08;21.90;86.40
14733;DHT22;7457;50.960;6.830;2022-07-25T00:50:35;21.90;86.60
14733;DHT22;7457;50.960;6.830;2022-07-25T00:53:00;21.80;86.90
14733;DHT22;7457;50.960;6.830;2022-07-25T00:55:27;21.80;86.90
14733;DHT22;7457;50.960;6.830;2022-07-25T00:57:53;21.80;87.00
14733;DHT22;7457;50.960;6.830;2022-07-25T01:00:19;21.80;87.30
14733;DHT22;7457;50.960;6.830;2022-07-25T01:02:45;21.70;87.40
14733;DHT22;7457;50.960;6.830;2022-07-25T01:05:11;21.70;87.60
14733;DHT22;7457;50.960;6.830;2022-07-25T01:07:37;21.60;87.60
14733;DHT22;7457;50.960;6.830;2022-07-25T01:10:04;21.60;88.00
14733;DHT22;7457;50.960;6.830;2022-07-25T01:12:30;21.60;88.00
14733;DHT22;7457;50.960;6.830;2022-07-25T01:14:56;21.50;88.20
14733;DHT22;7457;50.960;6.830;2022-07-25T01:17:22;21.50;88.30
14733;DHT22;7457;50.960;6.830;2022-07-25T01:19:48;21.50;88.30
14733;DHT22;7457;50.960;6.830;2022-07-25T01:22:16;21.40;88.20
14733;DHT22;7457;50.960;6.830;2022-07-25T01:24:41;21.40;88.20
14733;DHT22;7457;50.960;6.830;2022-07-25T01:27:07;21.40;88.20
14733;DHT22;7457;50.960;6.830;2022-07-25T01:29:33;21.30;88.10
14733;DHT22;7457;50.960;6.830;2022-07-25T01:31:59;21.30;88.10
14733;DHT22;7457;50.960;6.830;2022-07-25T01:34:24;21.30;88.10
14733;DHT22;7457;50.960;6.830;2022-07-25T01:36:50;21.30;88.20
14733;DHT22;7457;50.960;6.830;2022-07-25T01:39:15;21.20;88.00
14733;DHT22;7457;50.960;6.830;2022-07-25T01:41:41;21.20;88.00
14733;DHT22;7457;50.960;6.830;2022-07-25T01:44:06;21.20;88.10
14733;DHT22;7457;50.960;6.830;2022-07-25T01:46:32;21.20;88.00
14733;DHT22;7457;50.960;6.830;2022-07-25T01:48:58;21.20;88.00
14733;DHT22;7457;50.960;6.830;2022-07-25T01:51:24;21.20;88.00
14733;DHT22;7457;50.960;6.830;2022-07-25T01:53:49;21.20;88.00
14733;DHT22;7457;50.960;6.830;2022-07-25T01:56:15;21.20;88.00
14733;DHT22;7457;50.960;6.830;2022-07-25T01:58:41;21.20;87.80
14733;DHT22;7457;50.960;6.830;2022-07-25T02:01:06;21.20;87.60
14733;DHT22;7457;50.960;6.830;2022-07-25T02:03:32;21.20;87.50
14733;DHT22;7457;50.960;6.830;2022-07-25T02:06:03;21.20;87.30
14733;DHT22;7457;50.960;6.830;2022-07-25T02:08:29;21.20;87.20
14733;DHT22;7457;50.960;6.830;2022-07-25T02:10:55;21.20;87.10
14733;DHT22;7457;50.960;6.830;2022-07-25T02:13:21;21.20;87.10
14733;DHT22;7457;50.960;6.830;2022-07-25T02:15:47;21.10;87.00
14733;DHT22;7457;50.960;6.830;2022-07-25T02:18:12;21.10;87.20
14733;DHT22;7457;50.960;6.830;2022-07-25T02:20:38;21.10;87.40
14733;DHT22;7457;50.960;6.830;2022-07-25T02:23:04;21.00;87.60
14733;DHT22;7457;50.960;6.830;2022-07-25T02:25:30;20.90;87.70
14733;DHT22;7457;50.960;6.830;2022-07-25T02:27:56;20.80;87.60
14733;DHT22;7457;50.960;6.830;2022-07-25T02:30:22;20.70;88.00
14733;DHT22;7457;50.960;6.830;2022-07-25T02:32:48;20.70;88.20
14733;DHT22;7457;50.960;6.830;2022-07-25T02:35:13;20.70;88.20
14733;DHT22;7457;50.960;6.830;2022-07-25T02:37:40;20.70;88.20
14733;DHT22;7457;50.960;6.830;2022-07-25T02:40:06;20.70;88.10
14733;DHT22;7457;50.960;6.830;2022-07-25T02:42:32;20.70;88.10
14733;DHT22;7457;50.960;6.830;2022-07-25T02:44:58;20.70;88.20
14733;DHT22;7457;50.960;6.830;2022-07-25T02:47:23;20.70;88.20
14733;DHT22;7457;50.960;6.830;2022-07-25T02:49:49;20.70;88.20
14733;DHT22;7457;50.960;6.830;2022-07-25T02:52:15;20.60;88.20
14733;DHT22;7457;50.960;6.830;2022-07-25T02:54:40;20.70;88.40
14733;DHT22;7457;50.960;6.830;2022-07-25T02:57:09;20.70;88.40
14733;DHT22;7457;50.960;6.830;2022-07-25T02:59:34;20.70;88.30
14733;DHT22;7457;50.960;6.830;2022-07-25T03:02:00;20.80;88.30
14733;DHT22;7457;50.960;6.830;2022-07-25T03:04:26;20.80;88.30
14733;DHT22;7457;50.960;6.830;2022-07-25T03:06:51;20.80;88.30
14733;DHT22;7457;50.960;6.830;2022-07-25T03:09:17;20.80;88.30
14733;DHT22;7457;50.960;6.830;2022-07-25T03:11:43;20.80;88.20
14733;DHT22;7457;50.960;6.830;2022-07-25T03:14:09;20.70;88.20
14733;DHT22;7457;50.960;6.830;2022-07-25T03:16:34;20.70;88.10
14733;DHT22;7457;50.960;6.830;2022-07-25T03:19:01;20.60;88.10
14733;DHT22;7457;50.960;6.830;2022-07-25T03:21:27;20.60;88.10
14733;DHT22;7457;50.960;6.830;2022-07-25T03:23:52;20.60;88.10
14733;DHT22;7457;50.960;6.830;2022-07-25T03:26:18;20.60;88.20
14733;DHT22;7457;50.960;6.830;2022-07-25T03:28:44;20.60;88.10
14733;DHT22;7457;50.960;6.830;2022-07-25T03:31:10;20.70;88.20
14733;DHT22;7457;50.960;6.830;2022-07-25T03:33:35;20.60;88.00
14733;DHT22;7457;50.960;6.830;2022-07-25T03:36:01;20.60;87.80
14733;DHT22;7457;50.960;6.830;2022-07-25T03:38:26;20.70;87.70
14733;DHT22;7457;50.960;6.830;2022-07-25T03:40:52;20.70;87.50
14733;DHT22;7457;50.960;6.830;2022-07-25T03:43:18;20.70;87.50
14733;DHT22;7457;50.960;6.830;2022-07-25T03:45:43;20.70;87.50
14733;DHT22;7457;50.960;6.830;2022-07-25T03:48:09;20.80;87.60
14733;DHT22;7457;50.960;6.830;2022-07-25T03:50:34;20.80;87.60
14733;DHT22;7457;50.960;6.830;2022-07-25T03:53:00;20.70;87.30
14733;DHT22;7457;50.960;6.830;2022-07-25T03:55:26;20.70;87.30
14733;DHT22;7457;50.960;6.830;2022-07-25T03:57:52;20.70;87.20
14733;DHT22;7457;50.960;6.830;2022-07-25T04:00:17;20.70;87.20
14733;DHT22;7457;50.960;6.830;2022-07-25T04:02:43;20.70;87.20
14733;DHT22;7457;50.960;6.830;2022-07-25T04:05:09;20.60;87.10
14733;DHT22;7457;50.960;6.830;2022-07-25T04:07:35;20.60;87.30
14733;DHT22;7457;50.960;6.830;2022-07-25T04:10:01;20.60;87.40
14733;DHT22;7457;50.960;6.830;2022-07-25T04:12:27;20.50;87.30
14733;DHT22;7457;50.960;6.830;2022-07-25T04:14:52;20.60;87.50
14733;DHT22;7457;50.960;6.830;2022-07-25T04:17:18;20.60;87.50
14733;DHT22;7457;50.960;6.830;2022-07-25T04:19:44;20.60;87.40
14733;DHT22;7457;50.960;6.830;2022-07-25T04:22:09;20.50;87.30
14733;DHT22;7457;50.960;6.830;2022-07-25T04:24:35;20.50;87.30
14733;DHT22;7457;50.960;6.830;2022-07-25T04:27:00;20.50;87.50
14733;DHT22;7457;50.960;6.830;2022-07-25T04:29:26;20.50;87.60
14733;DHT22;7457;50.960;6.830;2022-07-25T04:31:52;20.60;87.80
14733;DHT22;7457;50.960;6.830;2022-07-25T04:34:17;20.60;88.00
14733;DHT22;7457;50.960;6.830;2022-07-25T04:36:43;20.70;88.70
14733;DHT22;7457;50.960;6.830;2022-07-25T04:39:08;20.80;88.10
14733;DHT22;7457;50.960;6.830;2022-07-25T04:41:34;20.90;87.90
14733;DHT22;7457;50.960;6.830;2022-07-25T04:44:00;21.10;87.90
14733;DHT22;7457;50.960;6.830;2022-07-25T04:46:25;21.30;88.10
14733;DHT22;7457;50.960;6.830;2022-07-25T04:48:51;21.50;88.00
14733;DHT22;7457;50.960;6.830;2022-07-25T04:51:17;21.70;87.50
14733;DHT22;7457;50.960;6.830;2022-07-25T04:53:43;22.00;87.30
14733;DHT22;7457;50.960;6.830;2022-07-25T04:56:09;22.30;86.90
14733;DHT22;7457;50.960;6.830;2022-07-25T04:58:34;22.60;86.10
14733;DHT22;7457;50.960;6.830;2022-07-25T05:01:00;22.90;85.10
14733;DHT22;7457;50.960;6.830;2022-07-25T05:03:26;23.10;84.10
14733;DHT22;7457;50.960;6.830;2022-07-25T05:05:52;23.30;84.00
14733;DHT22;7457;50.960;6.830;2022-07-25T05:08:44;23.40;83.80
14733;DHT22;7457;50.960;6.830;2022-07-25T05:11:10;23.60;83.10
14733;DHT22;7457;50.960;6.830;2022-07-25T05:13:35;23.60;82.60
14733;DHT22;7457;50.960;6.830;2022-07-25T05:16:05;23.70;82.20
14733;DHT22;7457;50.960;6.830;2022-07-25T05:18:32;23.70;81.90
14733;DHT22;7457;50.960;6.830;2022-07-25T05:20:58;23.60;81.80
14733;DHT22;7457;50.960;6.830;2022-07-25T05:23:24;23.50;81.90
14733;DHT22;7457;50.960;6.830;2022-07-25T05:25:49;23.40;82.00
14733;DHT22;7457;50.960;6.830;2022-07-25T05:28:15;23.30;82.20
14733;DHT22;7457;50.960;6.830;2022-07-25T05:30:41;23.20;82.40
14733;DHT22;7457;50.960;6.830;2022-07-25T05:33:15;23.10;82.70
14733;DHT22;7457;50.960;6.830;2022-07-25T05:35:41;23.10;83.00
14733;DHT22;7457;50.960;6.830;2022-07-25T05:38:07;23.00;83.00
14733;DHT22;7457;50.960;6.830;2022-07-25T05:40:32;23.00;83.20
14733;DHT22;7457;50.960;6.830;2022-07-25T05:42:58;23.00;83.30
14733;DHT22;7457;50.960;6.830;2022-07-25T05:45:23;23.00;83.40
14733;DHT22;7457;50.960;6.830;2022-07-25T05:47:49;22.90;83.40
14733;DHT22;7457;50.960;6.830;2022-07-25T05:50:15;22.90;83.60
14733;DHT22;7457;50.960;6.830;2022-07-25T05:52:40;22.90;83.60
14733;DHT22;7457;50.960;6.830;2022-07-25T05:55:06;22.90;83.60
14733;DHT22;7457;50.960;6.830;2022-07-25T05:57:34;23.00;83.60
14733;DHT22;7457;50.960;6.830;2022-07-25T05:59:59;23.00;83.30
14733;DHT22;7457;50.960;6.830;2022-07-25T06:02:25;23.10;83.10
14733;DHT22;7457;50.960;6.830;2022-07-25T06:04:51;23.10;82.70
14733;DHT22;7457;50.960;6.830;2022-07-25T06:07:16;23.20;82.50
14733;DHT22;7457;50.960;6.830;2022-07-25T06:09:42;23.30;82.60
14733;DHT22;7457;50.960;6.830;2022-07-25T06:12:07;23.40;82.50
14733;DHT22;7457;50.960;6.830;2022-07-25T06:14:33;23.50;82.50
14733;DHT22;7457;50.960;6.830;2022-07-25T06:16:59;23.60;82.50
14733;DHT22;7457;50.960;6.830;2022-07-25T06:19:24;23.80;82.40
14733;DHT22;7457;50.960;6.830;2022-07-25T06:21:50;23.90;82.00
14733;DHT22;7457;50.960;6.830;2022-07-25T06:24:15;24.00;81.60
14733;DHT22;7457;50.960;6.830;2022-07-25T06:26:41;24.10;81.40
14733;DHT22;7457;50.960;6.830;2022-07-25T06:29:07;24.20;81.10
14733;DHT22;7457;50.960;6.830;2022-07-25T06:31:32;24.30;81.00
14733;DHT22;7457;50.960;6.830;2022-07-25T06:33:58;24.40;80.90
14733;DHT22;7457;50.960;6.830;2022-07-25T06:36:24;24.60;80.60
14733;DHT22;7457;50.960;6.830;2022-07-25T06:38:49;24.80;80.10
14733;DHT22;7457;50.960;6.830;2022-07-25T06:41:15;25.00;80.00
14733;DHT22;7457;50.960;6.830;2022-07-25T06:43:41;25.00;79.00
14733;DHT22;7457;50.960;6.830;2022-07-25T06:46:07;25.20;78.90
14733;DHT22;7457;50.960;6.830;2022-07-25T06:48:32;25.20;78.60
14733;DHT22;7457;50.960;6.830;2022-07-25T06:50:58;25.30;78.40
14733;DHT22;7457;50.960;6.830;2022-07-25T06:53:23;25.40;78.30
14733;DHT22;7457;50.960;6.830;2022-07-25T06:55:49;25.50;78.30
14733;DHT22;7457;50.960;6.830;2022-07-25T06:58:15;25.60;77.80
14733;DHT22;7457;50.960;6.830;2022-07-25T07:00:40;25.70;77.50
14733;DHT22;7457;50.960;6.830;2022-07-25T07:03:06;25.80;77.20
14733;DHT22;7457;50.960;6.830;2022-07-25T07:05:33;25.90;76.80
14733;DHT22;7457;50.960;6.830;2022-07-25T07:07:59;26.00;76.60
14733;DHT22;7457;50.960;6.830;2022-07-25T07:10:26;26.10;76.40
14733;DHT22;7457;50.960;6.830;2022-07-25T07:13:02;26.20;76.00
14733;DHT22;7457;50.960;6.830;2022-07-25T07:15:28;26.40;75.60
14733;DHT22;7457;50.960;6.830;2022-07-25T07:17:54;26.50;75.50
14733;DHT22;7457;50.960;6.830;2022-07-25T07:20:19;26.60;75.30
14733;DHT22;7457;50.960;6.830;2022-07-25T07:22:46;26.80;75.10
14733;DHT22;7457;50.960;6.830;2022-07-25T07:25:17;27.00;74.90
14733;DHT22;7457;50.960;6.830;2022-07-25T07:27:44;27.20;74.20
14733;DHT22;7457;50.960;6.830;2022-07-25T07:30:10;27.30;73.50
14733;DHT22;7457;50.960;6.830;2022-07-25T07:32:36;27.50;73.10
14733;DHT22;7457;50.960;6.830;2022-07-25T07:35:02;27.60;72.70
14733;DHT22;7457;50.960;6.830;2022-07-25T07:37:28;27.70;72.20
14733;DHT22;7457;50.960;6.830;2022-07-25T07:39:54;27.80;72.00
14733;DHT22;7457;50.960;6.830;2022-07-25T07:42:19;27.90;71.80
14733;DHT22;7457;50.960;6.830;2022-07-25T07:44:45;28.00;72.20
14733;DHT22;7457;50.960;6.830;2022-07-25T07:47:10;28.10;71.20
14733;DHT22;7457;50.960;6.830;2022-07-25T07:49:36;28.20;70.80
14733;DHT22;7457;50.960;6.830;2022-07-25T07:52:02;28.30;70.80
14733;DHT22;7457;50.960;6.830;2022-07-25T07:54:28;28.30;70.70
14733;DHT22;7457;50.960;6.830;2022-07-25T07:57:12;28.40;70.80
14733;DHT22;7457;50.960;6.830;2022-07-25T07:59:38;28.50;70.30
14733;DHT22;7457;50.960;6.830;2022-07-25T08:02:03;28.70;69.50
14733;DHT22;7457;50.960;6.830;2022-07-25T08:04:29;28.80;68.30
14733;DHT22;7457;50.960;6.830;2022-07-25T08:06:55;28.90;67.90
14733;DHT22;7457;50.960;6.830;2022-07-25T08:09:20;29.00;67.70
14733;DHT22;7457;50.960;6.830;2022-07-25T08:11:46;29.10;67.10
14733;DHT22;7457;50.960;6.830;2022-07-25T08:14:11;29.10;66.90
14733;DHT22;7457;50.960;6.830;2022-07-25T08:16:37;29.20;66.80
14733;DHT22;7457;50.960;6.830;2022-07-25T08:19:03;29.20;66.50
14733;DHT22;7457;50.960;6.830;2022-07-25T08:21:28;29.20;66.20
14733;DHT22;7457;50.960;6.830;2022-07-25T08:23:54;29.10;65.90
14733;DHT22;7457;50.960;6.830;2022-07-25T08:26:19;29.10;65.50
14733;DHT22;7457;50.960;6.830;2022-07-25T08:28:45;29.00;65.50
14733;DHT22;7457;50.960;6.830;2022-07-25T08:31:11;29.00;66.00
14733;DHT22;7457;50.960;6.830;2022-07-25T08:33:36;28.90;66.30
14733;DHT22;7457;50.960;6.830;2022-07-25T08:36:02;28.90;66.30
14733;DHT22;7457;50.960;6.830;2022-07-25T08:38:28;28.80;66.00
14733;DHT22;7457;50.960;6.830;2022-07-25T08:40:55;28.80;66.00
14733;DHT22;7457;50.960;6.830;2022-07-25T08:43:22;28.80;66.00
14733;DHT22;7457;50.960;6.830;2022-07-25T08:45:50;28.80;65.60
14733;DHT22;7457;50.960;6.830;2022-07-25T08:48:24;28.70;65.30
14733;DHT22;7457;50.960;6.830;2022-07-25T08:50:50;28.60;65.00
14733;DHT22;7457;50.960;6.830;2022-07-25T08:53:17;28.60;65.20
14733;DHT22;7457;50.960;6.830;2022-07-25T08:55:44;28.60;65.30
14733;DHT22;7457;50.960;6.830;2022-07-25T08:58:11;28.70;65.50
14733;DHT22;7457;50.960;6.830;2022-07-25T09:00:38;28.80;65.10
14733;DHT22;7457;50.960;6.830;2022-07-25T09:03:04;29.00;65.00
14733;DHT22;7457;50.960;6.830;2022-07-25T09:05:31;29.20;64.60
14733;DHT22;7457;50.960;6.830;2022-07-25T09:08:11;29.40;64.30
14733;DHT22;7457;50.960;6.830;2022-07-25T09:10:38;29.80;64.10
14733;DHT22;7457;50.960;6.830;2022-07-25T09:13:10;30.20;63.60
14733;DHT22;7457;50.960;6.830;2022-07-25T09:15:47;30.60;62.70
14733;DHT22;7457;50.960;6.830;2022-07-25T09:18:15;30.90;61.50
14733;DHT22;7457;50.960;6.830;2022-07-25T09:23:09;31.70;60.10
14733;DHT22;7457;50.960;6.830;2022-07-25T09:25:35;31.80;59.30
14733;DHT22;7457;50.960;6.830;2022-07-25T09:28:15;31.90;58.60
14733;DHT22;7457;50.960;6.830;2022-07-25T09:30:58;31.90;58.00
14733;DHT22;7457;50.960;6.830;2022-07-25T09:33:25;32.10;57.80
14733;DHT22;7457;50.960;6.830;2022-07-25T09:35:52;32.10;57.60
14733;DHT22;7457;50.960;6.830;2022-07-25T09:38:18;31.90;57.60
14733;DHT22;7457;50.960;6.830;2022-07-25T09:40:57;31.70;56.70
14733;DHT22;7457;50.960;6.830;2022-07-25T09:43:41;31.30;57.10
14733;DHT22;7457;50.960;6.830;2022-07-25T09:46:09;30.90;57.40
14733;DHT22;7457;50.960;6.830;2022-07-25T09:48:36;30.50;57.90
14733;DHT22;7457;50.960;6.830;2022-07-25T09:51:02;30.10;58.20
14733;DHT22;7457;50.960;6.830;2022-07-25T09:53:28;29.80;58.70
14733;DHT22;7457;50.960;6.830;2022-07-25T09:55:55;29.30;59.30
14733;DHT22;7457;50.960;6.830;2022-07-25T09:58:25;29.00;60.00
14733;DHT22;7457;50.960;6.830;2022-07-25T10:00:55;28.60;60.70
14733;DHT22;7457;50.960;6.830;2022-07-25T10:08:42;27.80;63.00
14733;DHT22;7457;50.960;6.830;2022-07-25T10:11:21;27.60;63.50
14733;DHT22;7457;50.960;6.830;2022-07-25T10:13:47;27.30;64.20
14733;DHT22;7457;50.960;6.830;2022-07-25T10:16:21;27.20;65.30
14733;DHT22;7457;50.960;6.830;2022-07-25T10:18:51;27.00;66.10
14733;DHT22;7457;50.960;6.830;2022-07-25T10:21:17;26.90;66.70
14733;DHT22;7457;50.960;6.830;2022-07-25T10:23:43;26.80;66.90
14733;DHT22;7457;50.960;6.830;2022-07-25T10:26:14;26.70;67.00
14733;DHT22;7457;50.960;6.830;2022-07-25T10:28:49;26.60;67.40
14733;DHT22;7457;50.960;6.830;2022-07-25T10:31:16;26.40;67.40
14733;DHT22;7457;50.960;6.830;2022-07-25T10:33:47;26.40;67.70
14733;DHT22;7457;50.960;6.830;2022-07-25T10:36:13;26.50;68.60
14733;DHT22;7457;50.960;6.830;2022-07-25T10:38:39;26.60;68.80
14733;DHT22;7457;50.960;6.830;2022-07-25T10:41:11;26.90;69.00
14733;DHT22;7457;50.960;6.830;2022-07-25T10:43:38;27.20;69.20
14733;DHT22;7457;50.960;6.830;2022-07-25T10:46:16;27.40;68.70
14733;DHT22;7457;50.960;6.830;2022-07-25T10:48:42;27.60;67.10
14733;DHT22;7457;50.960;6.830;2022-07-25T10:51:12;28.00;67.30
14733;DHT22;7457;50.960;6.830;2022-07-25T10:56:13;28.60;64.80
14733;DHT22;7457;50.960;6.830;2022-07-25T11:01:11;29.00;64.20
14733;DHT22;7457;50.960;6.830;2022-07-25T11:03:40;29.40;63.50
14733;DHT22;7457;50.960;6.830;2022-07-25T11:06:06;30.00;62.90
14733;DHT22;7457;50.960;6.830;2022-07-25T11:08:33;30.30;60.90
14733;DHT22;7457;50.960;6.830;2022-07-25T11:11:00;30.40;59.80
14733;DHT22;7457;50.960;6.830;2022-07-25T11:13:26;30.40;59.00
14733;DHT22;7457;50.960;6.830;2022-07-25T11:15:56;30.20;58.90
14733;DHT22;7457;50.960;6.830;2022-07-25T11:18:32;30.10;59.40
14733;DHT22;7457;50.960;6.830;2022-07-25T11:21:00;29.90;59.20
14733;DHT22;7457;50.960;6.830;2022-07-25T11:23:26;29.90;59.40
14733;DHT22;7457;50.960;6.830;2022-07-25T11:26:10;29.80;59.60
14733;DHT22;7457;50.960;6.830;2022-07-25T11:28:44;29.70;59.30
14733;DHT22;7457;50.960;6.830;2022-07-25T11:31:11;29.50;59.60
14733;DHT22;7457;50.960;6.830;2022-07-25T11:33:39;29.40;59.60
14733;DHT22;7457;50.960;6.830;2022-07-25T11:36:06;29.30;59.50
14733;DHT22;7457;50.960;6.830;2022-07-25T11:38:33;29.40;59.40
14733;DHT22;7457;50.960;6.830;2022-07-25T11:40:59;29.40;58.90
14733;DHT22;7457;50.960;6.830;2022-07-25T11:43:25;29.50;58.50
14733;DHT22;7457;50.960;6.830;2022-07-25T11:46:06;29.50;58.50
14733;DHT22;7457;50.960;6.830;2022-07-25T11:48:37;29.60;58.00
14733;DHT22;7457;50.960;6.830;2022-07-25T11:51:15;29.70;57.80
14733;DHT22;7457;50.960;6.830;2022-07-25T11:53:46;29.90;56.80
14733;DHT22;7457;50.960;6.830;2022-07-25T11:56:15;30.00;57.00
14733;DHT22;7457;50.960;6.830;2022-07-25T11:58:41;30.20;56.50
14733;DHT22;7457;50.960;6.830;2022-07-25T12:01:12;30.60;55.90
14733;DHT22;7457;50.960;6.830;2022-07-25T12:03:38;30.90;55.20
14733;DHT22;7457;50.960;6.830;2022-07-25T12:06:09;31.10;55.00
14733;DHT22;7457;50.960;6.830;2022-07-25T12:08:41;31.30;54.20
14733;DHT22;7457;50.960;6.830;2022-07-25T12:11:20;31.40;53.70
14733;DHT22;7457;50.960;6.830;2022-07-25T12:13:47;31.50;53.20
14733;DHT22;7457;50.960;6.830;2022-07-25T12:16:13;31.50;53.20
14733;DHT22;7457;50.960;6.830;2022-07-25T12:18:38;31.70;53.60
14733;DHT22;7457;50.960;6.830;2022-07-25T12:21:04;32.10;53.50
14733;DHT22;7457;50.960;6.830;2022-07-25T12:23:30;32.50;53.10
14733;DHT22;7457;50.960;6.830;2022-07-25T12:26:01;32.90;52.70
14733;DHT22;7457;50.960;6.830;2022-07-25T12:28:36;33.20;51.80
14733;DHT22;7457;50.960;6.830;2022-07-25T12:31:02;33.60;51.10
14733;DHT22;7457;50.960;6.830;2022-07-25T12:33:27;33.60;50.90
14733;DHT22;7457;50.960;6.830;2022-07-25T12:35:53;33.70;50.70
14733;DHT22;7457;50.960;6.830;2022-07-25T12:38:19;33.50;50.00
14733;DHT22;7457;50.960;6.830;2022-07-25T12:40:44;33.30;49.90
14733;DHT22;7457;50.960;6.830;2022-07-25T12:43:10;32.90;51.00
14733;DHT22;7457;50.960;6.830;2022-07-25T12:45:36;32.50;51.10
14733;DHT22;7457;50.960;6.830;2022-07-25T12:48:01;32.10;52.50
14733;DHT22;7457;50.960;6.830;2022-07-25T12:50:27;32.00;52.70
14733;DHT22;7457;50.960;6.830;2022-07-25T12:52:53;31.70;52.60
14733;DHT22;7457;50.960;6.830;2022-07-25T12:55:19;31.80;53.00
14733;DHT22;7457;50.960;6.830;2022-07-25T12:57:45;31.70;53.10
14733;DHT22;7457;50.960;6.830;2022-07-25T13:00:14;31.60;53.20
14733;DHT22;7457;50.960;6.830;2022-07-25T13:02:40;31.60;53.90
14733;DHT22;7457;50.960;6.830;2022-07-25T13:05:06;31.70;53.70
14733;DHT22;7457;50.960;6.830;2022-07-25T13:07:33;31.90;53.90
14733;DHT22;7457;50.960;6.830;2022-07-25T13:09:59;32.10;54.00
14733;DHT22;7457;50.960;6.830;2022-07-25T13:12:25;32.20;53.40
14733;DHT22;7457;50.960;6.830;2022-07-25T13:14:51;32.10;52.80
14733;DHT22;7457;50.960;6.830;2022-07-25T13:17:16;32.00;52.80
14733;DHT22;7457;50.960;6.830;2022-07-25T13:19:42;31.90;52.80
14733;DHT22;7457;50.960;6.830;2022-07-25T13:22:08;31.70;52.70
14733;DHT22;7457;50.960;6.830;2022-07-25T13:24:33;31.50;53.20
14733;DHT22;7457;50.960;6.830;2022-07-25T13:27:05;31.30;53.70
14733;DHT22;7457;50.960;6.830;2022-07-25T13:29:32;31.10;54.00
14733;DHT22;7457;50.960;6.830;2022-07-25T13:31:58;30.80;54.50
14733;DHT22;7457;50.960;6.830;2022-07-25T13:34:24;30.80;54.60
14733;DHT22;7457;50.960;6.830;2022-07-25T13:36:49;30.70;55.10
14733;DHT22;7457;50.960;6.830;2022-07-25T13:39:15;30.70;55.10
14733;DHT22;7457;50.960;6.830;2022-07-25T13:41:41;30.60;55.30
14733;DHT22;7457;50.960;6.830;2022-07-25T13:44:06;30.50;55.40
14733;DHT22;7457;50.960;6.830;2022-07-25T13:46:32;30.40;55.40
14733;DHT22;7457;50.960;6.830;2022-07-25T13:48:58;30.30;55.40
14733;DHT22;7457;50.960;6.830;2022-07-25T13:51:23;30.30;55.70
14733;DHT22;7457;50.960;6.830;2022-07-25T13:53:49;30.30;55.70
14733;DHT22;7457;50.960;6.830;2022-07-25T13:56:15;30.20;55.90
14733;DHT22;7457;50.960;6.830;2022-07-25T13:58:40;30.10;55.90
14733;DHT22;7457;50.960;6.830;2022-07-25T14:01:07;29.90;55.90
14733;DHT22;7457;50.960;6.830;2022-07-25T14:03:33;29.80;56.00
14733;DHT22;7457;50.960;6.830;2022-07-25T14:06:02;29.60;56.20
14733;DHT22;7457;50.960;6.830;2022-07-25T14:08:27;29.50;56.60
14733;DHT22;7457;50.960;6.830;2022-07-25T14:10:53;29.40;56.80
14733;DHT22;7457;50.960;6.830;2022-07-25T14:13:19;29.30;57.00
14733;DHT22;7457;50.960;6.830;2022-07-25T14:15:44;29.40;57.30
14733;DHT22;7457;50.960;6.830;2022-07-25T14:18:10;29.40;57.70
14733;DHT22;7457;50.960;6.830;2022-07-25T14:20:36;29.40;57.00
14733;DHT22;7457;50.960;6.830;2022-07-25T14:23:01;29.40;56.30
14733;DHT22;7457;50.960;6.830;2022-07-25T14:25:27;29.30;56.10
14733;DHT22;7457;50.960;6.830;2022-07-25T14:27:52;29.10;56.00
14733;DHT22;7457;50.960;6.830;2022-07-25T14:30:18;28.90;56.50
14733;DHT22;7457;50.960;6.830;2022-07-25T14:32:44;28.80;56.70
14733;DHT22;7457;50.960;6.830;2022-07-25T14:35:10;28.70;56.90
14733;DHT22;7457;50.960;6.830;2022-07-25T14:37:36;28.70;58.00
14733;DHT22;7457;50.960;6.830;2022-07-25T14:40:03;28.70;57.40
14733;DHT22;7457;50.960;6.830;2022-07-25T14:42:30;28.70;57.20
14733;DHT22;7457;50.960;6.830;2022-07-25T14:44:56;28.70;57.10
14733;DHT22;7457;50.960;6.830;2022-07-25T14:47:21;28.60;57.30
14733;DHT22;7457;50.960;6.830;2022-07-25T14:49:47;28.40;57.70
14733;DHT22;7457;50.960;6.830;2022-07-25T14:52:14;28.30;57.80
14733;DHT22;7457;50.960;6.830;2022-07-25T14:54:40;28.20;57.90
14733;DHT22;7457;50.960;6.830;2022-07-25T14:57:07;28.00;58.10
14733;DHT22;7457;50.960;6.830;2022-07-25T14:59:33;27.90;58.40
14733;DHT22;7457;50.960;6.830;2022-07-25T15:01:59;27.70;58.60
14733;DHT22;7457;50.960;6.830;2022-07-25T15:04:24;27.60;59.00
14733;DHT22;7457;50.960;6.830;2022-07-25T15:06:51;27.50;59.40
14733;DHT22;7457;50.960;6.830;2022-07-25T15:09:18;27.40;60.00
14733;DHT22;7457;50.960;6.830;2022-07-25T15:11:43;27.20;60.70
14733;DHT22;7457;50.960;6.830;2022-07-25T15:14:09;27.00;61.30
14733;DHT22;7457;50.960;6.830;2022-07-25T15:16:36;26.90;61.80
14733;DHT22;7457;50.960;6.830;2022-07-25T15:19:01;26.70;62.50
14733;DHT22;7457;50.960;6.830;2022-07-25T15:21:28;26.60;62.80
14733;DHT22;7457;50.960;6.830;2022-07-25T15:23:53;26.60;63.30
14733;DHT22;7457;50.960;6.830;2022-07-25T15:26:21;26.50;63.60
14733;DHT22;7457;50.960;6.830;2022-07-25T15:28:47;26.50;63.60
14733;DHT22;7457;50.960;6.830;2022-07-25T15:31:13;26.50;64.00
14733;DHT22;7457;50.960;6.830;2022-07-25T15:33:39;26.50;64.10
14733;DHT22;7457;50.960;6.830;2022-07-25T15:36:19;26.60;64.50
14733;DHT22;7457;50.960;6.830;2022-07-25T15:38:45;26.60;64.50
14733;DHT22;7457;50.960;6.830;2022-07-25T15:41:11;26.50;64.40
14733;DHT22;7457;50.960;6.830;2022-07-25T15:43:38;26.40;64.40
14733;DHT22;7457;50.960;6.830;2022-07-25T15:46:04;26.30;64.60
14733;DHT22;7457;50.960;6.830;2022-07-25T15:48:30;26.20;64.90
14733;DHT22;7457;50.960;6.830;2022-07-25T15:50:57;26.10;65.00
14733;DHT22;7457;50.960;6.830;2022-07-25T15:53:24;25.90;65.00
14733;DHT22;7457;50.960;6.830;2022-07-25T15:55:50;25.80;65.60